createdAt,value
2017-07-21T00:02:07.626Z,100664.77
2017-07-21T00:04:34.017Z,100664.84
2017-07-21T00:07:00.359Z,100661.67
2017-07-21T00:09:26.693Z,100664.14
2017-07-21T00:11:53.067Z,100663.13
2017-07-21T00:14:19.421Z,100668.30
2017-07-21T00:16:45.759Z,100664.33
2017-07-21T00:19:12.113Z,100666.88
2017-07-21T00:21:38.442Z,100672.88
2017-07-21T00:24:04.787Z,100663.81
2017-07-21T00:26:31.154Z,100664.78
2017-07-21T00:28:57.485Z,100664.98
2017-07-21T00:31:23.833Z,100664.41
2017-07-21T00:33:50.164Z,100673.27
2017-07-21T00:36:16.493Z,100675.67
2017-07-21T00:38:42.833Z,100678.39
2017-07-21T00:41:09.183Z,100676.22
2017-07-21T00:43:35.552Z,100677.66
2017-07-21T00:46:01.935Z,100677.87
2017-07-21T00:48:28.287Z,100674.70
2017-07-21T00:50:54.653Z,100678.34
2017-07-21T00:53:20.983Z,100684.45
2017-07-21T00:55:47.336Z,100680.22
2017-07-21T00:58:13.675Z,100680.31
2017-07-21T01:00:40.029Z,100678.16
2017-07-21T01:03:06.347Z,100688.50
2017-07-21T01:05:32.683Z,100691.03
2017-07-21T01:07:59.027Z,100679.18
2017-07-21T01:10:25.365Z,100676.63
2017-07-21T01:12:51.757Z,100678.36
2017-07-21T01:15:18.087Z,100679.36
2017-07-21T01:17:44.446Z,100679.34
2017-07-21T01:20:10.825Z,100685.06
2017-07-21T01:22:37.153Z,100683.07
2017-07-21T01:25:03.513Z,100679.09
2017-07-21T01:27:29.875Z,100692.42
2017-07-21T01:29:56.255Z,100679.33
2017-07-21T01:32:22.581Z,100679.19
2017-07-21T01:34:48.922Z,100677.37
2017-07-21T01:37:15.279Z,100685.72
2017-07-21T01:39:41.667Z,100688.80
2017-07-21T01:42:08.034Z,100692.97
2017-07-21T01:44:34.374Z,100686.44
2017-07-21T01:47:00.786Z,100676.77
2017-07-21T01:49:27.195Z,100676.95
2017-07-21T01:51:53.655Z,100676.84
2017-07-21T01:54:20.010Z,100690.19
2017-07-21T01:56:46.390Z,100694.75
2017-07-21T01:59:12.765Z,100687.86
2017-07-21T02:01:39.159Z,100678.63
2017-07-21T02:04:05.489Z,100690.09
2017-07-21T02:06:31.846Z,100687.12
2017-07-21T02:08:58.195Z,100681.93
2017-07-21T02:11:24.525Z,100688.73
2017-07-21T02:13:50.866Z,100684.50
2017-07-21T02:16:17.199Z,100691.55
2017-07-21T02:18:43.529Z,100691.41
2017-07-21T02:21:09.865Z,100684.05
2017-07-21T02:23:36.228Z,100691.23
2017-07-21T02:26:02.573Z,100694.20
2017-07-21T02:28:28.921Z,100692.67
2017-07-21T02:30:55.267Z,100694.83
2017-07-21T02:33:21.608Z,100690.28
2017-07-21T02:35:47.929Z,100695.48
2017-07-21T02:38:14.275Z,100695.59
2017-07-21T02:40:40.624Z,100701.88
2017-07-21T02:43:06.973Z,100703.91
2017-07-21T02:45:33.304Z,100705.88
2017-07-21T02:47:59.621Z,100706.41
2017-07-21T02:50:25.987Z,100703.25
2017-07-21T02:52:52.353Z,100708.16
2017-07-21T02:55:18.703Z,100704.73
2017-07-21T02:57:45.051Z,100710.55
2017-07-21T03:00:11.438Z,100712.83
2017-07-21T03:02:37.822Z,100713.92
2017-07-21T03:05:04.160Z,100717.94
2017-07-21T03:07:30.505Z,100722.77
2017-07-21T03:09:56.882Z,100715.06
2017-07-21T03:12:23.235Z,100716.60
2017-07-21T03:14:49.589Z,100725.80
2017-07-21T03:17:15.928Z,100730.97
2017-07-21T03:19:42.304Z,100738.70
2017-07-21T03:22:08.983Z,100733.39
2017-07-21T03:24:35.335Z,100727.95
2017-07-21T03:27:01.700Z,100728.32
2017-07-21T03:29:28.028Z,100733.55
2017-07-21T03:31:54.430Z,100738.53
2017-07-21T03:34:20.780Z,100736.93
2017-07-21T03:36:47.129Z,100742.00
2017-07-21T03:39:13.463Z,100740.88
2017-07-21T03:41:39.829Z,100743.22
2017-07-21T03:44:06.178Z,100737.56
2017-07-21T03:46:32.881Z,100738.32
2017-07-21T03:48:59.214Z,100744.80
2017-07-21T03:51:25.540Z,100743.73
2017-07-21T03:53:51.875Z,100745.56
2017-07-21T03:56:18.242Z,100743.27
2017-07-21T03:58:44.597Z,100744.59
2017-07-21T04:01:10.928Z,100747.34
2017-07-21T04:03:37.273Z,100754.96
2017-07-21T04:06:03.646Z,100745.43
2017-07-21T04:08:30.003Z,100746.02
2017-07-21T04:10:56.366Z,100748.69
2017-07-21T04:13:22.729Z,100753.52
2017-07-21T04:15:49.081Z,100749.73
2017-07-21T04:18:15.434Z,100750.09
2017-07-21T04:20:42.668Z,100747.30
2017-07-21T04:23:08.995Z,100749.30
2017-07-21T04:25:35.348Z,100750.99
2017-07-21T04:28:01.684Z,100754.72
2017-07-21T04:30:28.008Z,100753.30
2017-07-21T04:32:54.362Z,100757.52
2017-07-21T04:35:20.716Z,100750.98
2017-07-21T04:37:47.111Z,100754.63
2017-07-21T04:40:13.422Z,100753.22
2017-07-21T04:42:39.773Z,100759.55
2017-07-21T04:45:06.104Z,100760.45
2017-07-21T04:47:32.431Z,100759.65
2017-07-21T04:49:58.780Z,100760.19
2017-07-21T04:52:25.177Z,100758.43
2017-07-21T04:54:51.544Z,100774.52
2017-07-21T04:57:17.907Z,100765.87
2017-07-21T04:59:44.243Z,100764.28
2017-07-21T05:02:10.614Z,100767.17
2017-07-21T05:04:36.946Z,100772.75
2017-07-21T05:07:03.318Z,100769.78
2017-07-21T05:09:29.681Z,100770.91
2017-07-21T05:11:56.031Z,100772.27
2017-07-21T05:14:22.363Z,100771.70
2017-07-21T05:16:48.704Z,100777.27
2017-07-21T05:19:15.055Z,100778.67
2017-07-21T05:21:41.396Z,100777.16
2017-07-21T05:24:08.273Z,100782.77
2017-07-21T05:26:34.592Z,100780.45
2017-07-21T05:29:00.949Z,100782.36
2017-07-21T05:31:27.302Z,100780.09
2017-07-21T05:33:53.645Z,100776.94
2017-07-21T05:36:20.000Z,100782.09
2017-07-21T05:38:46.348Z,100783.41
2017-07-21T05:41:12.695Z,100787.07
2017-07-21T05:43:39.052Z,100784.91
2017-07-21T05:46:05.400Z,100781.36
2017-07-21T05:48:32.079Z,100788.39
2017-07-21T05:50:58.418Z,100789.80
2017-07-21T05:53:24.745Z,100786.65
2017-07-21T05:55:51.109Z,100780.70
2017-07-21T05:58:17.438Z,100782.47
2017-07-21T06:00:43.769Z,100785.66
2017-07-21T06:03:10.122Z,100793.23
2017-07-21T06:05:36.475Z,100790.41
2017-07-21T06:08:02.848Z,100790.13
2017-07-21T06:10:29.222Z,100787.43
2017-07-21T06:12:55.573Z,100788.58
2017-07-21T06:15:21.956Z,100784.86
2017-07-21T06:17:48.317Z,100786.88
2017-07-21T06:20:14.690Z,100789.98
2017-07-21T06:22:41.474Z,100789.54
2017-07-21T06:25:07.823Z,100793.03
2017-07-21T06:27:34.189Z,100798.89
2017-07-21T06:30:00.504Z,100798.86
2017-07-21T06:32:26.857Z,100792.52
2017-07-21T06:34:53.214Z,100794.48
2017-07-21T06:37:19.572Z,100790.25
2017-07-21T06:39:45.912Z,100796.91
2017-07-21T06:42:12.265Z,100800.91
2017-07-21T06:44:38.611Z,100801.12
2017-07-21T06:47:04.988Z,100798.42
2017-07-21T06:49:31.331Z,100806.60
2017-07-21T06:51:57.679Z,100800.57
2017-07-21T06:54:24.043Z,100801.86
2017-07-21T06:56:50.384Z,100798.86
2017-07-21T06:59:16.772Z,100807.69
2017-07-21T07:01:43.157Z,100802.84
2017-07-21T07:04:09.513Z,100812.37
2017-07-21T07:06:35.884Z,100808.88
2017-07-21T07:09:02.267Z,100816.69
2017-07-21T07:11:28.610Z,100814.91
2017-07-21T07:13:54.948Z,100812.23
2017-07-21T07:16:21.303Z,100810.02
2017-07-21T07:18:47.663Z,100807.72
2017-07-21T07:21:14.023Z,100804.66
2017-07-21T07:23:40.406Z,100805.88
2017-07-21T07:26:06.779Z,100809.37
2017-07-21T07:28:33.102Z,100804.00
2017-07-21T07:30:59.452Z,100801.23
2017-07-21T07:33:25.829Z,100809.42
2017-07-21T07:35:52.180Z,100798.84
2017-07-21T07:38:18.520Z,100799.18
2017-07-21T07:40:44.868Z,100801.33
2017-07-21T07:43:11.186Z,100799.19
2017-07-21T07:45:37.513Z,100804.33
2017-07-21T07:48:03.824Z,100792.92
2017-07-21T07:50:30.194Z,100787.30
2017-07-21T07:52:56.538Z,100780.03
2017-07-21T07:55:22.894Z,100792.97
2017-07-21T07:57:49.275Z,100797.19
2017-07-21T08:00:15.644Z,100793.61
2017-07-21T08:02:41.988Z,100793.09
2017-07-21T08:05:08.328Z,100794.10
2017-07-21T08:07:34.716Z,100787.80
2017-07-21T08:10:01.057Z,100792.06
2017-07-21T08:12:27.417Z,100789.65
2017-07-21T08:14:53.793Z,100790.22
2017-07-21T08:17:20.145Z,100788.53
2017-07-21T08:19:46.466Z,100784.22
2017-07-21T08:22:12.822Z,100780.88
2017-07-21T08:24:39.203Z,100779.29
2017-07-21T08:27:05.606Z,100781.98
2017-07-21T08:29:31.947Z,100777.89
2017-07-21T08:31:58.294Z,100782.00
2017-07-21T08:34:24.632Z,100777.45
2017-07-21T08:36:50.972Z,100788.91
2017-07-21T08:39:17.308Z,100783.64
2017-07-21T08:41:43.674Z,100783.46
2017-07-21T08:44:10.055Z,100787.34
2017-07-21T08:46:36.442Z,100784.66
2017-07-21T08:49:02.779Z,100788.48
2017-07-21T08:51:29.107Z,100785.62
2017-07-21T08:53:55.453Z,100787.23
2017-07-21T08:56:21.813Z,100783.73
2017-07-21T08:58:48.187Z,100788.77
2017-07-21T09:01:14.524Z,100782.85
2017-07-21T09:03:40.872Z,100781.38
2017-07-21T09:06:07.256Z,100779.90
2017-07-21T09:08:33.612Z,100774.47
2017-07-21T09:10:59.944Z,100780.60
2017-07-21T09:13:26.310Z,100775.27
2017-07-21T09:15:52.657Z,100781.63
2017-07-21T09:18:19.010Z,100774.64
2017-07-21T09:20:45.402Z,100774.42
2017-07-21T09:23:11.772Z,100776.22
2017-07-21T09:25:38.103Z,100766.67
2017-07-21T09:28:04.457Z,100761.63
2017-07-21T09:30:30.835Z,100760.36
2017-07-21T09:32:57.195Z,100762.13
2017-07-21T09:35:23.525Z,100755.00
2017-07-21T09:37:49.877Z,100757.16
2017-07-21T09:40:16.241Z,100764.50
2017-07-21T09:42:42.595Z,100759.47
2017-07-21T09:45:09.004Z,100755.03
2017-07-21T09:47:35.360Z,100753.83
2017-07-21T09:50:01.734Z,100749.40
2017-07-21T09:52:28.079Z,100746.17
2017-07-21T09:54:54.440Z,100742.63
2017-07-21T09:57:20.799Z,100743.29
2017-07-21T09:59:47.164Z,100749.26
2017-07-21T10:02:13.538Z,100742.01
2017-07-21T10:04:39.789Z,100733.84
2017-07-21T10:07:06.137Z,100740.98
2017-07-21T10:09:32.497Z,100740.80
2017-07-21T10:11:58.830Z,100733.98
2017-07-21T10:14:25.179Z,100735.25
2017-07-21T10:16:51.527Z,100731.94
2017-07-21T10:19:17.862Z,100727.44
2017-07-21T10:21:44.217Z,100729.60
2017-07-21T10:24:10.572Z,100731.77
2017-07-21T10:26:36.956Z,100728.33
2017-07-21T10:29:03.305Z,100727.17
2017-07-21T10:31:29.687Z,100718.87
2017-07-21T10:33:56.051Z,100724.58
2017-07-21T10:36:22.403Z,100721.05
2017-07-21T10:38:48.771Z,100726.23
2017-07-21T10:41:15.100Z,100716.72
2017-07-21T10:43:41.467Z,100715.70
2017-07-21T10:46:07.841Z,100711.11
2017-07-21T10:48:34.183Z,100707.22
2017-07-21T10:51:00.521Z,100700.59
2017-07-21T10:53:26.877Z,100701.86
2017-07-21T10:55:53.254Z,100696.02
2017-07-21T10:58:19.625Z,100689.58
2017-07-21T11:00:46.010Z,100684.97
2017-07-21T11:03:12.359Z,100686.19
2017-07-21T11:05:38.695Z,100685.48
2017-07-21T11:08:05.055Z,100677.78
2017-07-21T11:10:31.430Z,100687.80
2017-07-21T11:12:57.774Z,100678.95
2017-07-21T11:15:24.109Z,100678.77
2017-07-21T11:17:50.482Z,100675.82
2017-07-21T11:20:16.891Z,100678.88
2017-07-21T11:22:43.257Z,100672.38
2017-07-21T11:25:09.593Z,100666.23
2017-07-21T11:27:35.932Z,100665.71
2017-07-21T11:30:02.255Z,100660.61
2017-07-21T11:32:28.573Z,100657.84
2017-07-21T11:34:54.890Z,100654.09
2017-07-21T11:37:21.210Z,100649.23
2017-07-21T11:39:47.577Z,100652.30
2017-07-21T11:42:13.942Z,100648.89
2017-07-21T11:44:40.264Z,100647.73
2017-07-21T11:47:06.612Z,100646.59
2017-07-21T11:49:32.999Z,100644.34
2017-07-21T11:51:59.332Z,100640.07
2017-07-21T11:54:25.678Z,100646.32
2017-07-21T11:56:52.002Z,100639.25
2017-07-21T11:59:18.335Z,100640.95
2017-07-21T12:01:44.698Z,100634.27
2017-07-21T12:04:11.032Z,100629.18
2017-07-21T12:06:37.371Z,100631.37
2017-07-21T12:09:03.824Z,100622.72
2017-07-21T12:11:30.163Z,100622.48
2017-07-21T12:13:56.507Z,100634.05
2017-07-21T12:16:22.854Z,100627.02
2017-07-21T12:18:49.179Z,100627.52
2017-07-21T12:21:15.553Z,100631.36
2017-07-21T12:23:41.913Z,100625.70
2017-07-21T12:26:08.271Z,100630.84
2017-07-21T12:28:34.612Z,100622.77
2017-07-21T12:31:00.944Z,100621.67
2017-07-21T12:33:27.309Z,100618.61
2017-07-21T12:35:53.675Z,100618.44
2017-07-21T12:38:20.050Z,100615.66
2017-07-21T12:40:46.364Z,100614.91
2017-07-21T12:43:12.718Z,100612.61
2017-07-21T12:45:39.052Z,100611.03
2017-07-21T12:48:05.420Z,100613.86
2017-07-21T12:50:31.763Z,100608.52
2017-07-21T12:52:58.111Z,100605.83
2017-07-21T12:55:24.440Z,100605.40
2017-07-21T12:57:50.784Z,100603.77
2017-07-21T13:00:17.135Z,100593.97
2017-07-21T13:02:43.514Z,100597.34
2017-07-21T13:05:09.918Z,100592.31
2017-07-21T13:07:36.285Z,100596.83
2017-07-21T13:10:02.665Z,100602.92
2017-07-21T13:12:29.048Z,100595.88
2017-07-21T13:14:55.387Z,100588.45
2017-07-21T13:17:21.787Z,100587.86
2017-07-21T13:19:48.176Z,100580.59
2017-07-21T13:22:14.550Z,100579.16
2017-07-21T13:24:41.331Z,100586.41
2017-07-21T13:27:07.760Z,100585.34
2017-07-21T13:29:34.099Z,100588.12
2017-07-21T13:32:00.461Z,100585.69
2017-07-21T13:34:26.813Z,100578.80
2017-07-21T13:36:53.166Z,100582.19
2017-07-21T13:39:19.541Z,100578.85
2017-07-21T13:41:45.891Z,100580.43
2017-07-21T13:44:12.308Z,100575.56
2017-07-21T13:46:38.657Z,100567.20
2017-07-21T13:49:05.018Z,100566.44
2017-07-21T13:51:31.398Z,100562.72
2017-07-21T13:53:57.811Z,100555.31
2017-07-21T13:56:24.211Z,100554.12
2017-07-21T13:58:50.567Z,100549.12
2017-07-21T14:01:16.933Z,100554.20
2017-07-21T14:03:43.277Z,100539.60
2017-07-21T14:06:09.625Z,100538.10
2017-07-21T14:08:35.969Z,100537.33
2017-07-21T14:11:02.346Z,100536.88
2017-07-21T14:13:28.690Z,100529.59
2017-07-21T14:15:55.076Z,100522.66
2017-07-21T14:18:21.484Z,100525.55
2017-07-21T14:20:47.861Z,100514.45
2017-07-21T14:23:14.260Z,100508.72
2017-07-21T14:25:40.620Z,100508.75
2017-07-21T14:28:06.972Z,100503.09
2017-07-21T14:30:33.323Z,100503.36
2017-07-21T14:32:59.693Z,100505.61
2017-07-21T14:35:26.073Z,100494.73
2017-07-21T14:37:52.443Z,100501.59
2017-07-21T14:40:18.803Z,100499.75
2017-07-21T14:42:45.149Z,100499.67
2017-07-21T14:45:11.505Z,100494.90
2017-07-21T14:47:37.903Z,100493.88
2017-07-21T14:50:04.257Z,100489.66
2017-07-21T14:52:30.689Z,100477.37
2017-07-21T14:54:57.085Z,100470.77
2017-07-21T14:57:23.476Z,100469.75
2017-07-21T14:59:49.847Z,100473.28
2017-07-21T15:02:16.222Z,100475.45
2017-07-21T15:04:42.575Z,100473.07
2017-07-21T15:07:08.917Z,100466.99
2017-07-21T15:09:35.317Z,100459.06
2017-07-21T15:12:01.674Z,100456.42
2017-07-21T15:14:28.027Z,100458.63
2017-07-21T15:16:54.413Z,100453.59
2017-07-21T15:19:20.794Z,100442.85
2017-07-21T15:21:47.171Z,100443.00
2017-07-21T15:24:13.532Z,100444.73
2017-07-21T15:26:39.886Z,100435.13
2017-07-21T15:29:06.271Z,100423.61
2017-07-21T15:31:32.650Z,100426.52
2017-07-21T15:33:59.232Z,100427.90
2017-07-21T15:36:26.024Z,100429.56
2017-07-21T15:38:52.501Z,100427.60
2017-07-21T15:41:18.879Z,100418.02
2017-07-21T15:43:45.261Z,100422.38
2017-07-21T15:46:11.631Z,100419.91
2017-07-21T15:48:37.988Z,100415.97
2017-07-21T15:51:04.348Z,100414.91
2017-07-21T15:53:30.718Z,100414.08
2017-07-21T15:55:57.086Z,100407.54
2017-07-21T15:58:23.470Z,100405.90
2017-07-21T16:00:50.317Z,100402.87
2017-07-21T16:03:18.325Z,100392.12
2017-07-21T16:05:44.775Z,100387.63
2017-07-21T16:08:11.122Z,100384.55
2017-07-21T16:10:37.491Z,100387.15
2017-07-21T16:13:03.860Z,100384.21
2017-07-21T16:15:30.234Z,100385.27
2017-07-21T16:17:57.829Z,100389.06
2017-07-21T16:20:24.214Z,100384.01
2017-07-21T16:22:50.607Z,100384.16
2017-07-21T16:25:16.966Z,100368.90
2017-07-21T16:27:44.293Z,100372.31
2017-07-21T16:30:10.751Z,100367.41
2017-07-21T16:32:37.097Z,100362.92
2017-07-21T16:35:03.864Z,100363.89
2017-07-21T16:37:30.212Z,100353.76
2017-07-21T16:52:58.200Z,100352.16
2017-07-21T16:55:24.576Z,100339.97
2017-07-21T16:57:50.936Z,100341.13
2017-07-21T17:00:17.282Z,100349.89
2017-07-21T17:02:43.635Z,100348.89
2017-07-21T17:05:09.998Z,100353.42
2017-07-21T17:07:36.331Z,100356.05
2017-07-21T17:10:03.170Z,100357.38
2017-07-21T17:12:29.533Z,100342.89
2017-07-21T17:14:55.923Z,100348.59
2017-07-21T17:17:22.273Z,100339.74
2017-07-21T17:19:48.607Z,100332.55
2017-07-21T17:22:14.954Z,100326.53
2017-07-21T17:24:41.312Z,100323.30
2017-07-21T17:27:07.694Z,100316.73
2017-07-21T17:29:34.281Z,100312.47
2017-07-21T17:32:01.090Z,100315.67
2017-07-21T17:34:27.473Z,100327.61
2017-07-21T17:36:53.828Z,100323.61
2017-07-21T17:39:20.409Z,100324.67
2017-07-21T17:41:46.801Z,100325.04
2017-07-21T17:44:13.526Z,100328.41
2017-07-21T17:46:39.932Z,100328.77
2017-07-21T17:49:06.278Z,100324.52
2017-07-21T17:51:32.663Z,100325.02
2017-07-21T17:53:59.014Z,100329.70
2017-07-21T17:56:25.380Z,100323.77
2017-07-21T17:58:51.701Z,100330.27
2017-07-21T18:01:18.051Z,100338.38
2017-07-21T18:03:44.392Z,100337.73
2017-07-21T18:06:11.122Z,100334.12
2017-07-21T18:08:37.474Z,100337.35
2017-07-21T18:11:03.804Z,100333.64
2017-07-21T18:13:30.159Z,100336.61
2017-07-21T18:15:56.520Z,100342.02
2017-07-21T18:18:22.894Z,100339.41
2017-07-21T18:20:49.257Z,100335.11
2017-07-21T18:23:15.573Z,100330.79
2017-07-21T18:25:41.935Z,100333.47
2017-07-21T18:28:08.288Z,100337.39
2017-07-21T18:30:34.635Z,100344.44
2017-07-21T18:33:01.002Z,100343.37
2017-07-21T18:35:27.351Z,100351.22
2017-07-21T18:37:53.686Z,100349.95
2017-07-21T18:40:20.069Z,100349.11
2017-07-21T18:42:46.420Z,100352.10
2017-07-21T18:45:12.786Z,100349.10
2017-07-21T18:47:39.140Z,100354.39
2017-07-21T18:50:05.525Z,100357.15
2017-07-21T18:52:31.906Z,100365.73
2017-07-21T18:54:58.287Z,100371.44
2017-07-21T18:57:24.620Z,100374.30
2017-07-21T18:59:50.995Z,100370.95
2017-07-21T19:02:17.377Z,100370.73
2017-07-21T19:04:43.727Z,100370.92
2017-07-21T19:07:10.088Z,100369.33
2017-07-21T19:09:36.427Z,100370.84
2017-07-21T19:12:02.771Z,100360.86
2017-07-21T19:14:29.161Z,100352.48
2017-07-21T19:16:55.524Z,100352.75
2017-07-21T19:19:21.881Z,100352.94
2017-07-21T19:21:48.254Z,100361.64
2017-07-21T19:24:14.623Z,100356.46
2017-07-21T19:26:40.941Z,100351.89
2017-07-21T19:29:07.297Z,100341.99
2017-07-21T19:31:33.636Z,100344.98
2017-07-21T19:33:59.967Z,100342.23
2017-07-21T19:36:26.315Z,100340.58
2017-07-21T19:38:52.662Z,100347.16
2017-07-21T19:41:19.036Z,100345.93
2017-07-21T19:43:45.366Z,100345.47
2017-07-21T19:46:11.726Z,100346.35
2017-07-21T19:48:38.072Z,100352.38
2017-07-21T19:51:04.458Z,100344.19
2017-07-21T19:53:30.825Z,100342.81
2017-07-21T19:55:57.159Z,100339.66
2017-07-21T19:58:23.515Z,100344.75
2017-07-21T20:00:49.887Z,100349.70
2017-07-21T20:03:16.269Z,100350.21
2017-07-21T20:05:42.646Z,100346.88
2017-07-21T20:08:09.019Z,100352.13
2017-07-21T20:10:35.388Z,100348.84
2017-07-21T20:13:01.737Z,100349.47
2017-07-21T20:15:28.112Z,100346.74
2017-07-21T20:17:54.565Z,100345.16
2017-07-21T20:20:20.977Z,100347.16
2017-07-21T20:22:47.332Z,100346.94
2017-07-21T20:25:13.687Z,100340.83
2017-07-21T20:27:40.062Z,100330.67
2017-07-21T20:30:06.435Z,100335.47
2017-07-21T20:32:32.820Z,100330.31
2017-07-21T20:34:59.170Z,100332.27
2017-07-21T20:37:25.535Z,100333.48
2017-07-21T20:39:51.903Z,100321.06
2017-07-21T20:42:18.298Z,100313.75
2017-07-21T20:44:44.660Z,100323.48
2017-07-21T20:47:11.028Z,100335.42
2017-07-21T20:49:37.391Z,100342.55
2017-07-21T20:52:03.748Z,100341.16
2017-07-21T20:54:30.103Z,100349.81
2017-07-21T20:56:56.452Z,100353.05
2017-07-21T20:59:22.812Z,100358.13
2017-07-21T21:01:49.340Z,100354.84
2017-07-21T21:04:15.729Z,100351.30
2017-07-21T21:06:42.072Z,100335.94
2017-07-21T21:09:08.425Z,100340.88
2017-07-21T21:11:34.943Z,100348.97
2017-07-21T21:14:01.303Z,100341.43
2017-07-21T21:16:28.001Z,100329.11
2017-07-21T21:18:54.349Z,100326.20
2017-07-21T21:21:20.732Z,100322.72
2017-07-21T21:23:47.073Z,100322.78
2017-07-21T21:26:13.441Z,100319.38
2017-07-21T21:28:39.795Z,100322.70
2017-07-21T21:31:06.152Z,100330.34
2017-07-21T21:33:32.504Z,100330.66
2017-07-21T21:35:58.837Z,100322.72
2017-07-21T21:38:25.188Z,100317.83
2017-07-21T21:40:51.593Z,100311.98
2017-07-21T21:43:19.399Z,100317.27
2017-07-21T21:45:45.776Z,100318.06
2017-07-21T21:48:12.132Z,100315.17
2017-07-21T21:50:38.461Z,100309.60
2017-07-21T21:53:04.800Z,100317.05
2017-07-21T21:55:31.172Z,100308.61
2017-07-21T21:57:57.536Z,100304.43
2017-07-21T22:00:23.897Z,100300.64
2017-07-21T22:02:50.256Z,100298.78
2017-07-21T22:05:16.602Z,100298.52
2017-07-21T22:07:42.956Z,100298.52
2017-07-21T22:10:09.311Z,100293.00
2017-07-21T22:12:35.679Z,100297.57
2017-07-21T22:15:02.138Z,100304.45
2017-07-21T22:17:28.487Z,100305.63
2017-07-21T22:19:54.878Z,100306.23
2017-07-21T22:22:21.237Z,100313.54
2017-07-21T22:24:47.594Z,100318.03
2017-07-21T22:27:13.924Z,100314.59
2017-07-21T22:29:40.302Z,100319.78
2017-07-21T22:32:06.669Z,100315.95
2017-07-21T22:34:33.098Z,100305.68
2017-07-21T22:36:59.435Z,100287.62
2017-07-21T22:39:25.817Z,100296.14
2017-07-21T22:41:52.182Z,100301.97
2017-07-21T22:44:18.515Z,100297.58
2017-07-21T22:46:44.855Z,100295.93
2017-07-21T22:49:11.207Z,100292.20
2017-07-21T22:51:37.588Z,100294.22
2017-07-21T22:54:03.941Z,100301.05
2017-07-21T22:56:30.320Z,100300.05
2017-07-21T22:58:56.657Z,100301.28
2017-07-21T23:01:23.041Z,100305.39
2017-07-21T23:03:49.373Z,100305.39
2017-07-21T23:06:15.741Z,100309.80
2017-07-21T23:08:42.104Z,100319.13
2017-07-21T23:11:08.513Z,100316.50
2017-07-21T23:13:34.905Z,100304.46
2017-07-21T23:16:01.274Z,100312.98
2017-07-21T23:18:27.605Z,100310.78
2017-07-21T23:20:53.975Z,100317.95
2017-07-21T23:23:20.328Z,100315.58
2017-07-21T23:25:46.687Z,100318.45
2017-07-21T23:28:13.033Z,100320.23
2017-07-21T23:30:39.417Z,100318.70
2017-07-21T23:33:05.759Z,100328.92
2017-07-21T23:35:32.123Z,100318.42
2017-07-21T23:37:58.494Z,100313.34
2017-07-21T23:40:24.844Z,100309.13
2017-07-21T23:42:51.245Z,100308.20
2017-07-21T23:45:17.617Z,100310.05
2017-07-21T23:47:43.976Z,100310.22
2017-07-21T23:50:10.332Z,100305.75
2017-07-21T23:52:36.680Z,100310.65
2017-07-21T23:55:03.042Z,100304.08
2017-07-21T23:57:29.378Z,100305.07
2017-07-21T23:59:55.736Z,100307.24
